createdAt,value
2014-08-06T00:00:10.152Z,101313
2014-08-06T00:00:28.480Z,101307
2014-08-06T00:00:46.809Z,101303
2014-08-06T00:01:05.139Z,101319
2014-08-06T00:01:23.482Z,101310
2014-08-06T00:01:41.811Z,101303
2014-08-06T00:02:00.141Z,101307
2014-08-06T00:02:18.469Z,101313
2014-08-06T00:02:36.797Z,101310
2014-08-06T00:02:55.143Z,101307
2014-08-06T00:03:13.471Z,101310
2014-08-06T00:03:31.799Z,101310
2014-08-06T00:03:50.127Z,101313
2014-08-06T00:04:08.457Z,101310
2014-08-06T00:04:26.785Z,101316
2014-08-06T00:04:45.129Z,101305
2014-08-06T00:05:03.459Z,101313
2014-08-06T00:05:21.787Z,101316
2014-08-06T00:05:40.115Z,101313
2014-08-06T00:05:58.461Z,101319
2014-08-06T00:06:16.789Z,101319
2014-08-06T00:06:35.117Z,101319
2014-08-06T00:06:53.446Z,101305
2014-08-06T00:07:11.790Z,101307
2014-08-06T00:07:30.118Z,101313
2014-08-06T00:07:48.525Z,101313
2014-08-06T00:08:06.856Z,101313
2014-08-06T00:08:25.184Z,101310
2014-08-06T00:08:43.512Z,101310
2014-08-06T00:09:01.842Z,101307
2014-08-06T00:09:20.170Z,101313
2014-08-06T00:09:38.514Z,101307
2014-08-06T00:09:56.842Z,101310
2014-08-06T00:10:15.171Z,101305
2014-08-06T00:10:33.499Z,101310
2014-08-06T00:10:51.828Z,101307
2014-08-06T00:11:10.159Z,101307
2014-08-06T00:11:28.487Z,101310
2014-08-06T00:11:46.815Z,101307
2014-08-06T00:12:05.161Z,101305
2014-08-06T00:12:23.489Z,101313
2014-08-06T00:12:41.817Z,101319
2014-08-06T00:13:00.145Z,101313
2014-08-06T00:13:18.475Z,101310
2014-08-06T00:13:36.819Z,101302
2014-08-06T00:13:55.147Z,101319
2014-08-06T00:14:13.476Z,101310
2014-08-06T00:14:31.804Z,101310
2014-08-06T00:14:50.132Z,101310
2014-08-06T00:15:08.479Z,101302
2014-08-06T00:15:26.807Z,101313
2014-08-06T00:15:45.135Z,101307
2014-08-06T00:16:03.465Z,101307
2014-08-06T00:16:21.808Z,101305
2014-08-06T00:16:40.136Z,101310
2014-08-06T00:16:58.465Z,101305
2014-08-06T00:17:16.795Z,101307
2014-08-06T00:17:35.138Z,101307
2014-08-06T00:17:53.467Z,101305
2014-08-06T00:18:11.797Z,101307
2014-08-06T00:18:30.125Z,101307
2014-08-06T00:18:48.453Z,101305
2014-08-06T00:19:06.783Z,101310
2014-08-06T00:19:25.111Z,101313
2014-08-06T00:19:43.439Z,101310
2014-08-06T00:20:01.767Z,101307
2014-08-06T00:20:20.097Z,101313
2014-08-06T00:20:38.440Z,101315
2014-08-06T00:20:56.768Z,101315
2014-08-06T00:21:15.099Z,101302
2014-08-06T00:21:33.427Z,101310
2014-08-06T00:21:51.770Z,101296
2014-08-06T00:22:10.086Z,101310
2014-08-06T00:22:28.430Z,101313
2014-08-06T00:22:46.758Z,101307
2014-08-06T00:23:05.086Z,101305
2014-08-06T00:23:23.416Z,101318
2014-08-06T00:23:41.744Z,101310
2014-08-06T00:24:00.072Z,101305
2014-08-06T00:24:18.418Z,101313
2014-08-06T00:24:36.746Z,101310
2014-08-06T00:24:55.074Z,101313
2014-08-06T00:25:13.419Z,101307
2014-08-06T00:25:31.732Z,101318
2014-08-06T00:25:50.075Z,101313
2014-08-06T00:26:08.403Z,101318
2014-08-06T00:26:26.735Z,101315
2014-08-06T00:26:45.063Z,101313
2014-08-06T00:27:03.391Z,101310
2014-08-06T00:27:21.720Z,101315
2014-08-06T00:27:40.048Z,101313
2014-08-06T00:27:58.376Z,101310
2014-08-06T00:28:16.722Z,101310
2014-08-06T00:28:35.050Z,101313
2014-08-06T00:28:53.378Z,101310
2014-08-06T00:29:11.706Z,101307
2014-08-06T00:29:30.036Z,101310
2014-08-06T00:29:48.380Z,101315
2014-08-06T00:30:06.708Z,101313
2014-08-06T00:30:25.038Z,101310
2014-08-06T00:30:43.367Z,101313
2014-08-06T00:31:01.695Z,101313
2014-08-06T00:31:20.025Z,101318
2014-08-06T00:31:38.369Z,101313
2014-08-06T00:31:56.697Z,101327
2014-08-06T00:32:15.025Z,101313
2014-08-06T00:32:33.355Z,101318
2014-08-06T00:32:51.683Z,101302
2014-08-06T00:33:10.011Z,101310
2014-08-06T00:33:28.341Z,101299
2014-08-06T00:33:46.669Z,101313
2014-08-06T00:34:05.013Z,101315
2014-08-06T00:34:23.343Z,101315
2014-08-06T00:34:41.671Z,101302
2014-08-06T00:35:00.000Z,101307
2014-08-06T00:35:18.328Z,101310
2014-08-06T00:35:36.674Z,101310
2014-08-06T00:35:55.003Z,101313
2014-08-06T00:36:13.331Z,101315
2014-08-06T00:36:31.660Z,101307
2014-08-06T00:36:49.988Z,101312
2014-08-06T00:37:08.332Z,101310
2014-08-06T00:37:26.677Z,101310
2014-08-06T00:37:45.006Z,101313
2014-08-06T00:38:03.334Z,101313
2014-08-06T00:38:21.662Z,101302
2014-08-06T00:38:39.992Z,101302
2014-08-06T00:38:58.336Z,101302
2014-08-06T00:39:16.664Z,101313
2014-08-06T00:39:34.994Z,101305
2014-08-06T00:39:53.322Z,101315
2014-08-06T00:40:11.650Z,101312
2014-08-06T00:40:29.980Z,101310
2014-08-06T00:40:48.324Z,101315
2014-08-06T00:41:06.652Z,101307
2014-08-06T00:41:24.980Z,101318
2014-08-06T00:41:43.310Z,101309
2014-08-06T00:42:01.639Z,101312
2014-08-06T00:42:19.967Z,101312
2014-08-06T00:42:38.311Z,101312
2014-08-06T00:42:56.640Z,101315
2014-08-06T00:43:14.968Z,101312
2014-08-06T00:43:33.298Z,101312
2014-08-06T00:43:51.626Z,101309
2014-08-06T00:44:09.954Z,101312
2014-08-06T00:44:28.298Z,101309
2014-08-06T00:44:46.629Z,101307
2014-08-06T00:45:04.957Z,101312
2014-08-06T00:45:23.285Z,101312
2014-08-06T00:45:41.614Z,101312
2014-08-06T00:45:59.942Z,101310
2014-08-06T00:46:18.286Z,101302
2014-08-06T00:46:36.617Z,101312
2014-08-06T00:46:54.945Z,101310
2014-08-06T00:47:13.274Z,101312
2014-08-06T00:47:31.602Z,101315
2014-08-06T00:47:49.947Z,101315
2014-08-06T00:48:08.276Z,101312
2014-08-06T00:48:26.604Z,101312
2014-08-06T00:48:44.933Z,101310
2014-08-06T00:49:03.261Z,101321
2014-08-06T00:49:21.589Z,101310
2014-08-06T00:49:39.935Z,101321
2014-08-06T00:49:58.263Z,101309
2014-08-06T00:50:16.607Z,101310
2014-08-06T00:50:34.935Z,101309
2014-08-06T00:50:53.266Z,101312
2014-08-06T00:51:11.594Z,101312
2014-08-06T00:51:29.922Z,101318
2014-08-06T00:51:48.268Z,101309
2014-08-06T00:52:06.596Z,101315
2014-08-06T00:52:24.924Z,101312
2014-08-06T00:52:43.253Z,101312
2014-08-06T00:53:01.597Z,101309
2014-08-06T00:53:19.925Z,101318
2014-08-06T00:53:38.253Z,101309
2014-08-06T00:53:56.583Z,101312
2014-08-06T00:54:14.912Z,101309
2014-08-06T00:54:33.240Z,101305
2014-08-06T00:54:51.571Z,101309
2014-08-06T00:55:09.915Z,101324
2014-08-06T00:55:28.227Z,101315
2014-08-06T00:55:46.572Z,101312
2014-08-06T00:56:04.900Z,101315
2014-08-06T00:56:23.228Z,101305
2014-08-06T00:56:41.556Z,101312
2014-08-06T00:56:59.887Z,101305
2014-08-06T00:57:18.231Z,101315
2014-08-06T00:57:36.559Z,101305
2014-08-06T00:57:54.888Z,101305
2014-08-06T00:58:13.216Z,101315
2014-08-06T00:58:31.560Z,101315
2014-08-06T00:58:49.888Z,101315
2014-08-06T00:59:08.218Z,101318
2014-08-06T00:59:26.547Z,101318
2014-08-06T00:59:44.890Z,101315
2014-08-06T01:00:03.221Z,101321
2014-08-06T01:00:21.550Z,101315
2014-08-06T01:00:39.878Z,101323
2014-08-06T01:00:58.206Z,101315
2014-08-06T01:01:16.551Z,101321
2014-08-06T01:01:34.879Z,101304
2014-08-06T01:01:53.207Z,101315
2014-08-06T01:02:11.537Z,101312
2014-08-06T01:02:29.865Z,101312
2014-08-06T01:02:48.193Z,101312
2014-08-06T01:03:06.521Z,101318
2014-08-06T01:03:24.868Z,101315
2014-08-06T01:03:43.196Z,101315
2014-08-06T01:04:01.524Z,101315
2014-08-06T01:04:19.854Z,101315
2014-08-06T01:04:38.183Z,101318
2014-08-06T01:04:56.526Z,101304
2014-08-06T01:05:14.854Z,101312
2014-08-06T01:05:33.184Z,101306
2014-08-06T01:05:51.512Z,101306
2014-08-06T01:06:09.840Z,101315
2014-08-06T01:06:28.170Z,101318
2014-08-06T01:06:46.514Z,101318
2014-08-06T01:07:04.842Z,101306
2014-08-06T01:07:23.170Z,101315
2014-08-06T01:07:41.501Z,101304
2014-08-06T01:07:59.829Z,101315
2014-08-06T01:08:18.157Z,101320
2014-08-06T01:08:36.487Z,101312
2014-08-06T01:08:54.831Z,101312
2014-08-06T01:09:13.159Z,101309
2014-08-06T01:09:31.487Z,101306
2014-08-06T01:09:49.817Z,101304
2014-08-06T01:10:08.145Z,101312
2014-08-06T01:10:26.488Z,101306
2014-08-06T01:10:44.820Z,101309
2014-08-06T01:11:03.148Z,101318
2014-08-06T01:11:21.476Z,101304
2014-08-06T01:11:39.788Z,101306
2014-08-06T01:11:58.150Z,101309
2014-08-06T01:12:16.462Z,101312
2014-08-06T01:12:34.806Z,101315
2014-08-06T01:12:53.136Z,101315
2014-08-06T01:13:11.464Z,101315
2014-08-06T01:13:29.792Z,101309
2014-08-06T01:13:48.120Z,101318
2014-08-06T01:14:06.451Z,101315
2014-08-06T01:14:24.779Z,101306
2014-08-06T01:14:43.107Z,101309
2014-08-06T01:15:01.453Z,101312
2014-08-06T01:15:19.781Z,101304
2014-08-06T01:15:38.109Z,101309
2014-08-06T01:15:56.437Z,101312
2014-08-06T01:16:14.767Z,101312
2014-08-06T01:16:33.095Z,101312
2014-08-06T01:16:51.423Z,101306
2014-08-06T01:17:09.753Z,101309
2014-08-06T01:17:28.082Z,101315
2014-08-06T01:17:46.410Z,101306
2014-08-06T01:18:04.738Z,101309
2014-08-06T01:18:23.068Z,101306
2014-08-06T01:18:41.412Z,101306
2014-08-06T01:18:59.740Z,101309
2014-08-06T01:19:18.071Z,101309
2014-08-06T01:19:36.399Z,101301
2014-08-06T01:19:54.727Z,101304
2014-08-06T01:20:13.055Z,101306
2014-08-06T01:20:31.401Z,101298
2014-08-06T01:20:49.729Z,101298
2014-08-06T01:21:08.057Z,101314
2014-08-06T01:21:26.403Z,101309
2014-08-06T01:21:44.731Z,101290
2014-08-06T01:22:03.059Z,101309
2014-08-06T01:22:21.387Z,101295
2014-08-06T01:22:39.717Z,101301
2014-08-06T01:22:58.045Z,101306
2014-08-06T01:23:16.388Z,101298
2014-08-06T01:23:34.729Z,101306
2014-08-06T01:23:53.057Z,101304
2014-08-06T01:24:11.385Z,101314
2014-08-06T01:24:29.713Z,101301
2014-08-06T01:24:48.084Z,101304
2014-08-06T01:25:06.428Z,101301
2014-08-06T01:25:24.756Z,101306
2014-08-06T01:25:43.131Z,101309
2014-08-06T01:26:01.459Z,101306
2014-08-06T01:26:19.787Z,101309
2014-08-06T01:26:38.115Z,101295
2014-08-06T01:26:56.487Z,101293
2014-08-06T01:27:14.830Z,101309
2014-08-06T01:27:33.158Z,101306
2014-08-06T01:27:51.534Z,101304
2014-08-06T01:28:09.862Z,101317
2014-08-06T01:28:28.205Z,101301
2014-08-06T01:28:46.534Z,101306
2014-08-06T01:29:04.891Z,101312
2014-08-06T01:29:23.219Z,101309
2014-08-06T01:29:41.547Z,101317
2014-08-06T01:29:59.893Z,101295
2014-08-06T01:30:18.237Z,101317
2014-08-06T01:30:36.565Z,101309
2014-08-06T01:30:54.893Z,101306
2014-08-06T01:31:13.238Z,101320
2014-08-06T01:31:31.566Z,101323
2014-08-06T01:31:49.894Z,101306
2014-08-06T01:32:08.256Z,101314
2014-08-06T01:32:26.584Z,101314
2014-08-06T01:32:44.912Z,101314
2014-08-06T01:33:03.258Z,101317
2014-08-06T01:33:21.586Z,101317
2014-08-06T01:33:39.914Z,101306
2014-08-06T01:33:58.242Z,101323
2014-08-06T01:34:16.579Z,101309
2014-08-06T01:34:34.923Z,101317
2014-08-06T01:34:53.251Z,101312
2014-08-06T01:35:11.586Z,101306
2014-08-06T01:35:29.914Z,101323
2014-08-06T01:35:48.242Z,101317
2014-08-06T01:36:06.781Z,101311
2014-08-06T01:36:24.921Z,101317
2014-08-06T01:36:43.249Z,101314
2014-08-06T01:37:01.577Z,101314
2014-08-06T01:37:19.913Z,101312
2014-08-06T01:37:38.241Z,101309
2014-08-06T01:37:56.569Z,101309
2014-08-06T01:38:14.906Z,101306
2014-08-06T01:38:33.250Z,101317
2014-08-06T01:38:51.578Z,101320
2014-08-06T01:39:09.910Z,101320
2014-08-06T01:39:28.238Z,101320
2014-08-06T01:39:46.566Z,101306
2014-08-06T01:40:05.097Z,101323
2014-08-06T01:40:23.226Z,101309
2014-08-06T01:40:41.555Z,101320
2014-08-06T01:40:59.898Z,101309
2014-08-06T01:41:18.230Z,101309
2014-08-06T01:41:36.559Z,101317
2014-08-06T01:41:54.887Z,101311
2014-08-06T01:42:13.219Z,101320
2014-08-06T01:42:31.563Z,101314
2014-08-06T01:42:49.891Z,101314
2014-08-06T01:43:08.219Z,101317
2014-08-06T01:43:26.550Z,101309
2014-08-06T01:43:44.894Z,101320
2014-08-06T01:44:03.222Z,101326
2014-08-06T01:44:21.569Z,101320
2014-08-06T01:44:39.897Z,101320
2014-08-06T01:44:58.225Z,101329
2014-08-06T01:45:16.556Z,101317
2014-08-06T01:45:34.900Z,101314
2014-08-06T01:45:53.228Z,101311
2014-08-06T01:46:11.556Z,101311
2014-08-06T01:46:29.887Z,101314
2014-08-06T01:46:48.215Z,101314
2014-08-06T01:47:06.543Z,101328
2014-08-06T01:47:24.889Z,101317
2014-08-06T01:47:43.217Z,101317
2014-08-06T01:48:01.545Z,101311
2014-08-06T01:48:19.876Z,101317
2014-08-06T01:48:38.205Z,101314
2014-08-06T01:48:56.533Z,101317
2014-08-06T01:49:14.861Z,101317
2014-08-06T01:49:33.207Z,101311
2014-08-06T01:49:51.535Z,101320
2014-08-06T01:50:09.863Z,101320
2014-08-06T01:50:28.193Z,101323
2014-08-06T01:50:46.521Z,101320
2014-08-06T01:51:04.849Z,101317
2014-08-06T01:51:23.193Z,101317
2014-08-06T01:51:41.507Z,101320
2014-08-06T01:51:59.851Z,101320
2014-08-06T01:52:18.179Z,101323
2014-08-06T01:52:36.509Z,101323
2014-08-06T01:52:54.838Z,101320
2014-08-06T01:53:13.166Z,101328
2014-08-06T01:53:31.509Z,101328
2014-08-06T01:53:49.824Z,101317
2014-08-06T01:54:08.168Z,101328
2014-08-06T01:54:26.496Z,101323
2014-08-06T01:54:44.826Z,101326
2014-08-06T01:55:03.154Z,101326
2014-08-06T01:55:21.482Z,101334
2014-08-06T01:55:39.826Z,101326
2014-08-06T01:55:58.156Z,101328
2014-08-06T01:56:16.484Z,101328
2014-08-06T01:56:34.812Z,101326
2014-08-06T01:56:53.142Z,101328
2014-08-06T01:57:11.471Z,101320
2014-08-06T01:57:29.799Z,101323
2014-08-06T01:57:48.127Z,101325
2014-08-06T01:58:06.457Z,101317
2014-08-06T01:58:24.801Z,101328
2014-08-06T01:58:43.129Z,101331
2014-08-06T01:59:01.460Z,101328
2014-08-06T01:59:19.788Z,101325
2014-08-06T01:59:38.116Z,101331
2014-08-06T01:59:56.444Z,101328
2014-08-06T02:00:14.774Z,101331
2014-08-06T02:00:33.103Z,101331
2014-08-06T02:00:51.431Z,101322
2014-08-06T02:01:09.760Z,101317
2014-08-06T02:01:28.088Z,101325
2014-08-06T02:01:46.416Z,101314
2014-08-06T02:02:04.744Z,101322
2014-08-06T02:02:23.074Z,101325
2014-08-06T02:02:41.402Z,101334
2014-08-06T02:02:59.731Z,101319
2014-08-06T02:03:18.061Z,101328
2014-08-06T02:03:36.404Z,101325
2014-08-06T02:03:54.717Z,101331
2014-08-06T02:04:13.061Z,101325
2014-08-06T02:04:31.392Z,101319
2014-08-06T02:04:49.720Z,101331
2014-08-06T02:05:08.064Z,101319
2014-08-06T02:05:26.393Z,101322
2014-08-06T02:05:44.721Z,101322
2014-08-06T02:06:03.049Z,101325
2014-08-06T02:06:21.380Z,101331
2014-08-06T02:06:39.708Z,101322
2014-08-06T02:06:58.036Z,101319
2014-08-06T02:07:16.365Z,101319
2014-08-06T02:07:34.695Z,101314
2014-08-06T02:07:53.007Z,101328
2014-08-06T02:08:11.351Z,101322
2014-08-06T02:08:29.681Z,101322
2014-08-06T02:08:48.009Z,101314
2014-08-06T02:09:06.337Z,101314
2014-08-06T02:09:24.665Z,101314
2014-08-06T02:09:42.996Z,101320
2014-08-06T02:10:01.324Z,101314
2014-08-06T02:10:19.652Z,101320
2014-08-06T02:10:37.981Z,101322
2014-08-06T02:10:56.293Z,101320
2014-08-06T02:11:14.637Z,101314
2014-08-06T02:11:32.965Z,101314
2014-08-06T02:11:51.295Z,101322
2014-08-06T02:12:09.624Z,101314
2014-08-06T02:12:27.952Z,101331
2014-08-06T02:12:46.283Z,101314
2014-08-06T02:13:04.611Z,101320
2014-08-06T02:13:22.939Z,101317
2014-08-06T02:13:41.267Z,101320
2014-08-06T02:13:59.597Z,101311
2014-08-06T02:14:17.925Z,101314
2014-08-06T02:14:36.254Z,101314
2014-08-06T02:14:54.584Z,101322
2014-08-06T02:15:12.912Z,101308
2014-08-06T02:15:31.240Z,101311
2014-08-06T02:15:49.570Z,101317
2014-08-06T02:16:07.898Z,101314
2014-08-06T02:16:26.226Z,101322
2014-08-06T02:16:44.554Z,101320
2014-08-06T02:17:02.899Z,101308
2014-08-06T02:17:21.212Z,101320
2014-08-06T02:17:39.555Z,101306
2014-08-06T02:17:57.887Z,101314
2014-08-06T02:18:16.215Z,101308
2014-08-06T02:18:34.543Z,101317
2014-08-06T02:18:52.873Z,101308
2014-08-06T02:19:11.201Z,101308
2014-08-06T02:19:29.545Z,101314
2014-08-06T02:19:47.873Z,101311
2014-08-06T02:20:06.203Z,101314
2014-08-06T02:20:24.531Z,101314
2014-08-06T02:20:42.859Z,101314
2014-08-06T02:21:01.188Z,101314
2014-08-06T02:21:19.517Z,101320
2014-08-06T02:21:37.845Z,101314
2014-08-06T02:21:56.176Z,101308
2014-08-06T02:22:14.520Z,101320
2014-08-06T02:22:32.832Z,101317
2014-08-06T02:22:51.160Z,101311
2014-08-06T02:23:09.506Z,101311
2014-08-06T02:23:27.818Z,101320
2014-08-06T02:23:46.162Z,101308
2014-08-06T02:24:04.491Z,101317
2014-08-06T02:24:22.819Z,101306
2014-08-06T02:24:41.132Z,101314
2014-08-06T02:24:59.462Z,101317
2014-08-06T02:25:17.790Z,101308
2014-08-06T02:25:36.118Z,101303
2014-08-06T02:25:54.462Z,101306
2014-08-06T02:26:12.792Z,101317
2014-08-06T02:26:31.120Z,101308
2014-08-06T02:26:49.448Z,101306
2014-08-06T02:27:07.779Z,101308
2014-08-06T02:27:26.122Z,101308
2014-08-06T02:27:44.450Z,101311
2014-08-06T02:28:02.782Z,101311
2014-08-06T02:28:21.110Z,101308
2014-08-06T02:28:39.438Z,101308
2014-08-06T02:28:57.766Z,101306
2014-08-06T02:29:16.095Z,101314
2014-08-06T02:29:34.423Z,101303
2014-08-06T02:29:52.751Z,101306
2014-08-06T02:30:11.081Z,101308
2014-08-06T02:30:29.410Z,101308
2014-08-06T02:30:47.738Z,101306
2014-08-06T02:31:06.068Z,101306
2014-08-06T02:31:24.396Z,101308
2014-08-06T02:31:42.724Z,101322
2014-08-06T02:32:01.052Z,101308
2014-08-06T02:32:19.383Z,101311
2014-08-06T02:32:37.711Z,101314
2014-08-06T02:32:56.040Z,101300
2014-08-06T02:33:14.369Z,101308
2014-08-06T02:33:32.697Z,101317
2014-08-06T02:33:51.025Z,101311
2014-08-06T02:34:09.355Z,101314
2014-08-06T02:34:27.683Z,101295
2014-08-06T02:34:46.011Z,101308
2014-08-06T02:35:04.339Z,101308
2014-08-06T02:35:22.670Z,101306
2014-08-06T02:35:40.998Z,101303
2014-08-06T02:35:59.326Z,101314
2014-08-06T02:36:17.687Z,101314
2014-08-06T02:36:35.968Z,101311
2014-08-06T02:36:54.281Z,101311
2014-08-06T02:37:12.658Z,101303
2014-08-06T02:37:30.986Z,101306
2014-08-06T02:37:49.314Z,101306
2014-08-06T02:38:07.642Z,101308
2014-08-06T02:38:25.972Z,101319
2014-08-06T02:38:44.316Z,101316
2014-08-06T02:39:02.629Z,101316
2014-08-06T02:39:20.959Z,101314
2014-08-06T02:39:39.303Z,101311
2014-08-06T02:39:57.631Z,101311
2014-08-06T02:40:15.960Z,101308
2014-08-06T02:40:34.304Z,101308
2014-08-06T02:40:52.632Z,101311
2014-08-06T02:41:10.960Z,101314
2014-08-06T02:41:29.291Z,101311
2014-08-06T02:41:47.619Z,101303
2014-08-06T02:42:05.947Z,101303
2014-08-06T02:42:24.246Z,101303
2014-08-06T02:42:42.605Z,101306
2014-08-06T02:43:00.949Z,101303
2014-08-06T02:43:19.279Z,101306
2014-08-06T02:43:37.607Z,101306
2014-08-06T02:43:55.936Z,101297
2014-08-06T02:44:14.264Z,101297
2014-08-06T02:44:32.594Z,101297
2014-08-06T02:44:50.906Z,101303
2014-08-06T02:45:09.250Z,101300
2014-08-06T02:45:27.595Z,101297
2014-08-06T02:45:45.923Z,101306
2014-08-06T02:46:04.251Z,101308
2014-08-06T02:46:22.581Z,101306
2014-08-06T02:46:40.909Z,101308
2014-08-06T02:46:59.237Z,101306
2014-08-06T02:47:17.581Z,101306
2014-08-06T02:47:35.911Z,101303
2014-08-06T02:47:54.208Z,101306
2014-08-06T02:48:12.568Z,101306
2014-08-06T02:48:30.899Z,101300
2014-08-06T02:48:49.227Z,101300
2014-08-06T02:49:07.555Z,101311
2014-08-06T02:49:25.884Z,101297
2014-08-06T02:49:44.212Z,101303
2014-08-06T02:50:02.540Z,101294
2014-08-06T02:50:20.868Z,101297
2014-08-06T02:50:39.200Z,101306
2014-08-06T02:50:57.528Z,101300
2014-08-06T02:51:15.871Z,101294
2014-08-06T02:51:34.202Z,101308
2014-08-06T02:51:52.530Z,101297
2014-08-06T02:52:10.858Z,101297
2014-08-06T02:52:29.187Z,101294
2014-08-06T02:52:47.515Z,101300
2014-08-06T02:53:05.843Z,101303
2014-08-06T02:53:24.189Z,101297
2014-08-06T02:53:42.501Z,101297
2014-08-06T02:54:00.845Z,101303
2014-08-06T02:54:19.173Z,101300
2014-08-06T02:54:37.503Z,101303
2014-08-06T02:54:55.832Z,101294
2014-08-06T02:55:14.160Z,101303
2014-08-06T02:55:32.505Z,101300
2014-08-06T02:55:50.834Z,101294
2014-08-06T02:56:09.162Z,101297
2014-08-06T02:56:27.492Z,101303
2014-08-06T02:56:45.836Z,101294
2014-08-06T02:57:04.351Z,101300
2014-08-06T02:57:22.695Z,101292
2014-08-06T02:57:41.025Z,101295
2014-08-06T02:57:59.353Z,101292
2014-08-06T02:58:17.697Z,101300
2014-08-06T02:58:36.027Z,101292
2014-08-06T02:58:54.355Z,101292
2014-08-06T02:59:12.683Z,101292
2014-08-06T02:59:31.012Z,101297
2014-08-06T02:59:49.341Z,101294
2014-08-06T03:00:07.669Z,101297
2014-08-06T03:00:25.997Z,101289
2014-08-06T03:00:44.328Z,101292
2014-08-06T03:01:02.672Z,101289
2014-08-06T03:01:21.000Z,101292
2014-08-06T03:01:39.329Z,101294
2014-08-06T03:01:57.657Z,101289
2014-08-06T03:02:15.985Z,101292
2014-08-06T03:02:34.316Z,101289
2014-08-06T03:02:52.644Z,101297
2014-08-06T03:03:10.973Z,101297
2014-08-06T03:03:29.301Z,101294
2014-08-06T03:03:47.630Z,101294
2014-08-06T03:04:05.958Z,101292
2014-08-06T03:04:24.270Z,101294
2014-08-06T03:04:42.632Z,101297
2014-08-06T03:05:00.960Z,101286
2014-08-06T03:05:19.288Z,101292
2014-08-06T03:05:37.618Z,101300
2014-08-06T03:05:55.946Z,101297
2014-08-06T03:06:14.290Z,101306
2014-08-06T03:06:32.618Z,101289
2014-08-06T03:06:50.949Z,101291
2014-08-06T03:07:09.277Z,101308
2014-08-06T03:07:27.606Z,101300
2014-08-06T03:07:45.904Z,101297
2014-08-06T03:08:04.279Z,101300
2014-08-06T03:08:22.608Z,101297
2014-08-06T03:08:40.938Z,101294
2014-08-06T03:08:59.281Z,101300
2014-08-06T03:09:17.610Z,101294
2014-08-06T03:09:35.938Z,101300
2014-08-06T03:09:54.268Z,101297
2014-08-06T03:10:12.596Z,101291
2014-08-06T03:10:30.893Z,101297
2014-08-06T03:10:49.253Z,101297
2014-08-06T03:11:07.800Z,101291
2014-08-06T03:11:26.128Z,101288
2014-08-06T03:11:44.458Z,101291
2014-08-06T03:12:02.802Z,101306
2014-08-06T03:12:21.130Z,101307
2014-08-06T03:12:39.427Z,101291
2014-08-06T03:12:57.788Z,101306
2014-08-06T03:13:16.117Z,101291
2014-08-06T03:13:34.445Z,101307
2014-08-06T03:13:52.790Z,101291
2014-08-06T03:14:11.119Z,101294
2014-08-06T03:14:29.447Z,101291
2014-08-06T03:14:47.777Z,101300
2014-08-06T03:15:06.105Z,101303
2014-08-06T03:15:24.417Z,101303
2014-08-06T03:15:42.777Z,101297
2014-08-06T03:16:01.107Z,101291
2014-08-06T03:16:19.435Z,101291
2014-08-06T03:16:37.763Z,101297
2014-08-06T03:16:56.093Z,101297
2014-08-06T03:17:14.421Z,101306
2014-08-06T03:17:32.765Z,101294
2014-08-06T03:17:51.095Z,101297
2014-08-06T03:18:09.423Z,101294
2014-08-06T03:18:27.752Z,101297
2014-08-06T03:18:46.080Z,101292
2014-08-06T03:19:04.410Z,101303
2014-08-06T03:19:22.738Z,101303
2014-08-06T03:19:41.066Z,101306
2014-08-06T03:19:59.412Z,101294
2014-08-06T03:20:17.724Z,101297
2014-08-06T03:20:36.068Z,101303
2014-08-06T03:20:54.398Z,101300
2014-08-06T03:21:12.726Z,101297
2014-08-06T03:21:31.070Z,101300
2014-08-06T03:21:49.398Z,101297
2014-08-06T03:22:07.728Z,101306
2014-08-06T03:22:26.056Z,101291
2014-08-06T03:22:44.385Z,101288
2014-08-06T03:23:02.714Z,101300
2014-08-06T03:23:21.042Z,101300
2014-08-06T03:23:39.370Z,101294
2014-08-06T03:23:57.700Z,101303
2014-08-06T03:24:16.044Z,101300
2014-08-06T03:24:34.372Z,101294
2014-08-06T03:24:52.700Z,101300
2014-08-06T03:25:11.030Z,101294
2014-08-06T03:25:29.358Z,101303
2014-08-06T03:25:47.686Z,101288
2014-08-06T03:26:06.018Z,101300
2014-08-06T03:26:24.346Z,101297
2014-08-06T03:26:42.674Z,101303
2014-08-06T03:27:01.019Z,101297
2014-08-06T03:27:19.347Z,101300
2014-08-06T03:27:37.675Z,101288
2014-08-06T03:27:56.003Z,101303
2014-08-06T03:28:14.334Z,101294
2014-08-06T03:28:32.678Z,101297
2014-08-06T03:28:51.006Z,101294
2014-08-06T03:29:09.335Z,101297
2014-08-06T03:29:27.663Z,101303
2014-08-06T03:29:45.991Z,101305
2014-08-06T03:30:04.319Z,101303
2014-08-06T03:30:22.651Z,101300
2014-08-06T03:30:40.994Z,101300
2014-08-06T03:30:59.322Z,101307
2014-08-06T03:31:17.653Z,101294
2014-08-06T03:31:35.981Z,101297
2014-08-06T03:31:54.309Z,101307
2014-08-06T03:32:12.637Z,101305
2014-08-06T03:32:31.155Z,101294
2014-08-06T03:32:49.483Z,101303
2014-08-06T03:33:07.811Z,101303
2014-08-06T03:33:26.141Z,101303
2014-08-06T03:33:44.469Z,101300
2014-08-06T03:34:02.797Z,101288
2014-08-06T03:34:21.125Z,101294
2014-08-06T03:34:39.455Z,101307
2014-08-06T03:34:57.784Z,101300
2014-08-06T03:35:16.112Z,101297
2014-08-06T03:35:34.457Z,101305
2014-08-06T03:35:52.786Z,101294
2014-08-06T03:36:11.114Z,101288
2014-08-06T03:36:29.442Z,101297
2014-08-06T03:36:47.772Z,101305
2014-08-06T03:37:06.116Z,101297
2014-08-06T03:37:24.444Z,101305
2014-08-06T03:37:42.774Z,101306
2014-08-06T03:38:01.102Z,101297
2014-08-06T03:38:19.430Z,101306
2014-08-06T03:38:37.758Z,101300
2014-08-06T03:38:56.088Z,101300
2014-08-06T03:39:14.417Z,101297
2014-08-06T03:39:32.745Z,101303
2014-08-06T03:39:51.075Z,101307
2014-08-06T03:40:09.403Z,101303
2014-08-06T03:40:27.747Z,101303
2014-08-06T03:40:46.075Z,101305
2014-08-06T03:41:04.405Z,101305
2014-08-06T03:41:22.733Z,101306
2014-08-06T03:41:41.061Z,101303
2014-08-06T03:41:59.391Z,101303
2014-08-06T03:42:17.719Z,101307
2014-08-06T03:42:36.063Z,101303
2014-08-06T03:42:54.391Z,101303
2014-08-06T03:43:12.721Z,101303
2014-08-06T03:43:31.050Z,101307
2014-08-06T03:43:49.378Z,101316
2014-08-06T03:44:07.708Z,101316
2014-08-06T03:44:26.052Z,101303
2014-08-06T03:44:44.380Z,101306
2014-08-06T03:45:02.708Z,101307
2014-08-06T03:45:21.038Z,101313
2014-08-06T03:45:39.366Z,101310
2014-08-06T03:45:57.694Z,101310
2014-08-06T03:46:16.024Z,101319
2014-08-06T03:46:34.352Z,101313
2014-08-06T03:46:52.681Z,101303
2014-08-06T03:47:11.024Z,101307
2014-08-06T03:47:29.354Z,101310
2014-08-06T03:47:47.683Z,101307
2014-08-06T03:48:06.011Z,101316
2014-08-06T03:48:24.342Z,101303
2014-08-06T03:48:42.670Z,101310